createdAt,value
2023-01-28T00:03:02.201Z,16.85
2023-01-28T00:15:07.139Z,15.35
2023-01-28T00:21:15.224Z,19.90
2023-01-28T00:27:17.873Z,14.65
2023-01-28T00:33:20.032Z,22.05
2023-01-28T00:39:22.396Z,19.92
2023-01-28T00:45:24.527Z,21.52
2023-01-28T00:51:27.183Z,20.00
2023-01-28T00:57:29.531Z,18.05
2023-01-28T01:09:34.000Z,16.20
2023-01-28T01:15:36.250Z,18.75
2023-01-28T01:21:38.630Z,19.15
2023-01-28T01:27:41.271Z,14.60
2023-01-28T01:33:45.177Z,10.55
2023-01-28T01:39:47.807Z,14.80
2023-01-28T01:45:56.415Z,14.77
2023-01-28T01:52:09.337Z,12.63
2023-01-28T01:58:16.429Z,13.07
2023-01-28T02:04:30.867Z,15.27
2023-01-28T02:10:32.994Z,12.80
2023-01-28T02:16:35.465Z,11.77
2023-01-28T02:22:55.577Z,15.63
2023-01-28T02:29:31.947Z,14.30
2023-01-28T02:35:43.022Z,13.23
2023-01-28T02:41:57.641Z,12.65
2023-01-28T02:47:59.894Z,12.63
2023-01-28T02:54:31.059Z,12.23
2023-01-28T03:00:55.821Z,9.18
2023-01-28T03:07:04.613Z,8.48
2023-01-28T03:13:25.309Z,9.38
2023-01-28T03:19:47.784Z,9.47
2023-01-28T03:26:11.005Z,10.27
2023-01-28T03:32:32.204Z,10.80
2023-01-28T03:38:42.561Z,8.57
2023-01-28T03:44:54.100Z,10.40
2023-01-28T03:51:00.662Z,9.35
2023-01-28T03:57:06.479Z,17.40
2023-01-28T04:03:16.451Z,13.00
2023-01-28T04:09:38.898Z,21.70
2023-01-28T04:16:03.843Z,17.00
2023-01-28T04:22:12.986Z,16.40
2023-01-28T04:28:17.411Z,16.55
2023-01-28T04:34:20.866Z,13.80
2023-01-28T04:40:37.961Z,13.38
2023-01-28T04:46:45.984Z,17.02
2023-01-28T04:52:52.045Z,14.00
2023-01-28T04:59:12.995Z,14.43
2023-01-28T05:11:39.322Z,17.73
2023-01-28T05:17:43.623Z,11.60
2023-01-28T05:23:47.819Z,13.23
2023-01-28T05:35:52.143Z,21.30
2023-01-28T05:41:56.101Z,22.10
2023-01-28T05:47:58.902Z,23.73
2023-01-28T05:54:18.355Z,20.50
2023-01-28T06:00:21.097Z,28.25
2023-01-28T06:06:23.466Z,24.52
2023-01-28T06:12:25.707Z,26.58
2023-01-28T06:18:48.269Z,22.43
2023-01-28T06:30:53.645Z,24.55
2023-01-28T06:36:55.959Z,20.15
2023-01-28T06:42:58.266Z,19.40
2023-01-28T06:55:02.676Z,17.55
2023-01-28T07:01:05.368Z,24.25
2023-01-28T07:07:07.851Z,22.42
2023-01-28T07:13:10.705Z,14.88
2023-01-28T07:19:13.012Z,14.95
2023-01-28T07:25:15.697Z,14.80
2023-01-28T07:31:17.969Z,16.42
2023-01-28T07:43:22.525Z,15.25
2023-01-28T07:49:28.535Z,14.25
2023-01-28T07:55:31.539Z,67.22
2023-01-28T08:01:33.965Z,41.50
2023-01-28T08:13:38.541Z,40.65
2023-01-28T08:19:40.864Z,39.65
2023-01-28T08:25:43.358Z,21.48
2023-01-28T08:37:48.298Z,22.33
2023-01-28T08:49:52.647Z,38.85
2023-01-28T08:55:55.855Z,16.73
2023-01-28T09:01:58.586Z,15.38
2023-01-28T09:08:06.738Z,18.13
2023-01-28T09:14:08.967Z,18.27
2023-01-28T09:20:13.966Z,13.32
2023-01-28T09:26:16.572Z,21.60
2023-01-28T09:32:18.914Z,13.85
2023-01-28T09:45:04.382Z,22.40
2023-01-28T09:51:30.073Z,26.63
2023-01-28T09:57:42.008Z,13.45
2023-01-28T10:03:56.107Z,13.60
2023-01-28T10:10:08.980Z,13.88
2023-01-28T10:22:34.250Z,18.65
2023-01-28T10:28:36.604Z,12.73
2023-01-28T10:34:38.963Z,18.85
2023-01-28T10:46:47.077Z,16.67
2023-01-28T10:53:04.398Z,13.68
2023-01-28T10:59:27.382Z,14.02
2023-01-28T11:05:31.622Z,17.35
2023-01-28T11:11:33.914Z,16.65
2023-01-28T11:17:39.131Z,19.77
2023-01-28T11:23:55.985Z,19.13
2023-01-28T11:30:04.964Z,22.23
2023-01-28T11:36:16.156Z,15.82
2023-01-28T11:42:20.833Z,17.83
2023-01-28T11:48:58.378Z,16.25
2023-01-28T11:55:34.433Z,21.83
2023-01-28T12:02:07.459Z,20.25
2023-01-28T12:08:26.141Z,10.77
2023-01-28T12:14:55.893Z,15.82
2023-01-28T12:21:11.017Z,16.67
2023-01-28T12:27:45.407Z,15.80
2023-01-28T12:34:15.215Z,14.90
2023-01-28T12:40:55.325Z,13.98
2023-01-28T12:47:10.885Z,17.90
2023-01-28T12:53:31.829Z,17.50
2023-01-28T12:59:46.465Z,37.60
2023-01-28T13:06:00.237Z,17.38
2023-01-28T13:12:04.034Z,16.58
2023-01-28T13:18:06.998Z,20.02
2023-01-28T13:24:09.512Z,19.52
2023-01-28T13:36:40.345Z,21.05
2023-01-28T13:42:42.886Z,17.60
2023-01-28T13:48:52.956Z,24.15
2023-01-28T13:54:58.017Z,19.75
2023-01-28T14:01:09.206Z,18.95
2023-01-28T14:07:46.815Z,24.65
2023-01-28T14:13:54.861Z,29.23
2023-01-28T14:19:58.900Z,24.90
2023-01-28T14:26:15.499Z,24.20
2023-01-28T14:32:27.426Z,22.80
2023-01-28T14:38:32.464Z,23.07
2023-01-28T14:44:38.414Z,28.77
2023-01-28T14:51:02.871Z,22.13
2023-01-28T14:57:40.701Z,24.42
2023-01-28T15:03:46.291Z,21.00
2023-01-28T15:10:02.629Z,19.00
2023-01-28T15:16:05.948Z,25.05
2023-01-28T15:22:08.864Z,22.30
2023-01-28T15:28:37.550Z,22.77
2023-01-28T15:34:46.370Z,26.85
2023-01-28T15:41:00.830Z,23.50
2023-01-28T15:47:24.686Z,28.98
2023-01-28T15:53:29.892Z,24.63
2023-01-28T15:59:32.228Z,23.88
2023-01-28T16:05:40.415Z,22.85
2023-01-28T16:11:45.214Z,25.95
2023-01-28T16:17:50.602Z,23.13
2023-01-28T16:23:58.833Z,31.48
2023-01-28T16:30:01.719Z,31.55
2023-01-28T16:36:08.579Z,33.00
2023-01-28T16:42:11.551Z,26.67
2023-01-28T16:48:14.283Z,28.13
2023-01-28T16:54:17.052Z,29.30
2023-01-28T17:00:24.942Z,29.00
2023-01-28T17:06:27.559Z,29.55
2023-01-28T17:12:30.067Z,28.77
2023-01-28T17:18:32.722Z,35.45
2023-01-28T17:24:35.186Z,33.45
2023-01-28T17:30:41.909Z,35.08
2023-01-28T17:36:44.344Z,38.58
2023-01-28T17:42:46.940Z,35.30
2023-01-28T17:48:49.241Z,36.83
2023-01-28T18:00:54.227Z,35.63
2023-01-28T18:06:56.566Z,32.00
2023-01-28T18:12:58.838Z,30.15
2023-01-28T18:19:01.306Z,35.20
2023-01-28T18:31:07.328Z,36.53
2023-01-28T18:37:10.671Z,37.50
2023-01-28T18:43:14.085Z,38.03
2023-01-28T18:49:16.972Z,45.90
2023-01-28T18:55:21.753Z,51.50
2023-01-28T19:01:24.264Z,45.35
2023-01-28T19:13:29.915Z,42.22
2023-01-28T19:19:32.809Z,41.30
2023-01-28T19:25:38.701Z,37.97
2023-01-28T19:31:40.979Z,45.92
2023-01-28T19:37:43.419Z,32.58
2023-01-28T19:49:47.810Z,39.30
2023-01-28T20:01:54.378Z,43.03
2023-01-28T20:07:56.981Z,44.40
2023-01-28T20:20:03.669Z,36.95
2023-01-28T20:26:06.002Z,53.30
2023-01-28T20:32:17.636Z,45.25
2023-01-28T20:38:21.759Z,48.83
2023-01-28T20:44:24.035Z,46.40
2023-01-28T20:50:26.705Z,44.30
2023-01-28T20:56:32.659Z,42.17
2023-01-28T21:02:38.013Z,38.00
2023-01-28T21:08:40.637Z,39.25
2023-01-28T21:14:42.822Z,44.00
2023-01-28T21:20:45.359Z,35.20
2023-01-28T21:26:47.714Z,41.38
2023-01-28T21:32:49.804Z,36.92
2023-01-28T21:38:53.973Z,42.70
2023-01-28T21:44:56.947Z,35.10
2023-01-28T21:51:27.602Z,30.77
2023-01-28T21:57:29.865Z,30.70
2023-01-28T22:03:32.120Z,26.63
2023-01-28T22:09:35.151Z,19.65
2023-01-28T22:15:37.195Z,18.05
2023-01-28T22:27:45.610Z,19.85
2023-01-28T22:33:47.983Z,15.90
2023-01-28T22:39:50.267Z,19.48
2023-01-28T22:46:01.534Z,20.05
2023-01-28T22:52:04.062Z,17.52
2023-01-28T22:58:07.764Z,19.17
2023-01-28T23:04:09.938Z,20.23
2023-01-28T23:10:12.750Z,20.30
2023-01-28T23:16:33.747Z,18.10
2023-01-28T23:22:54.883Z,19.70
2023-01-28T23:28:57.493Z,24.25
2023-01-28T23:34:59.718Z,29.08
2023-01-28T23:41:02.687Z,31.00
2023-01-28T23:47:05.391Z,29.60
2023-01-28T23:53:13.410Z,25.58
2023-01-28T23:59:15.765Z,28.58
